sensor_id;sensor_type;location;lat;lon;timestamp;pressure;altitude;pressure_sealevel;temperature;humidity
17438;BME280;8836;52.272;5.134;2022-07-10T00:00:09;102607.78;;;22.38;71.81
17438;BME280;8836;52.272;5.134;2022-07-10T00:02:37;102612.16;;;22.36;71.90
17438;BME280;8836;52.272;5.134;2022-07-10T00:05:05;102611.44;;;22.24;72.99
17438;BME280;8836;52.272;5.134;2022-07-10T00:07:33;102604.16;;;22.37;72.37
17438;BME280;8836;52.272;5.134;2022-07-10T00:10:02;102600.72;;;22.40;72.16
17438;BME280;8836;52.272;5.134;2022-07-10T00:12:29;102603.81;;;22.31;72.78
17438;BME280;8836;52.272;5.134;2022-07-10T00:14:56;102614.84;;;22.36;72.29
17438;BME280;8836;52.272;5.134;2022-07-10T00:17:22;102602.31;;;22.36;72.50
17438;BME280;8836;52.272;5.134;2022-07-10T00:19:49;102594.31;;;22.38;72.53
17438;BME280;8836;52.272;5.134;2022-07-10T00:22:16;102600.47;;;22.35;72.75
17438;BME280;8836;52.272;5.134;2022-07-10T00:24:43;102602.53;;;22.25;73.13
17438;BME280;8836;52.272;5.134;2022-07-10T00:27:11;102604.09;;;22.21;73.40
17438;BME280;8836;52.272;5.134;2022-07-10T00:29:38;102606.06;;;22.24;73.38
17438;BME280;8836;52.272;5.134;2022-07-10T00:32:06;102604.00;;;22.19;74.00
17438;BME280;8836;52.272;5.134;2022-07-10T00:34:33;102603.28;;;22.07;74.62
17438;BME280;8836;52.272;5.134;2022-07-10T00:37:00;102601.41;;;22.06;74.75
17438;BME280;8836;52.272;5.134;2022-07-10T00:39:27;102594.47;;;22.10;75.11
17438;BME280;8836;52.272;5.134;2022-07-10T00:41:55;102600.50;;;22.06;74.96
17438;BME280;8836;52.272;5.134;2022-07-10T00:44:23;102601.66;;;21.96;75.63
17438;BME280;8836;52.272;5.134;2022-07-10T00:46:50;102602.31;;;21.92;75.86
17438;BME280;8836;52.272;5.134;2022-07-10T00:49:17;102602.53;;;21.80;76.56
17438;BME280;8836;52.272;5.134;2022-07-10T00:51:44;102601.59;;;21.80;77.11
17438;BME280;8836;52.272;5.134;2022-07-10T00:54:12;102603.44;;;21.66;78.09
17438;BME280;8836;52.272;5.134;2022-07-10T00:56:39;102601.50;;;21.64;78.54
17438;BME280;8836;52.272;5.134;2022-07-10T00:59:09;102593.31;;;21.47;79.41
17438;BME280;8836;52.272;5.134;2022-07-10T01:01:38;102593.44;;;21.64;79.06
17438;BME280;8836;52.272;5.134;2022-07-10T01:04:05;102587.66;;;21.58;79.02
17438;BME280;8836;52.272;5.134;2022-07-10T01:06:32;102588.22;;;21.67;78.96
17438;BME280;8836;52.272;5.134;2022-07-10T01:08:59;102592.31;;;21.60;79.17
17438;BME280;8836;52.272;5.134;2022-07-10T01:11:26;102579.50;;;21.56;79.29
17438;BME280;8836;52.272;5.134;2022-07-10T01:13:54;102577.56;;;21.53;79.35
17438;BME280;8836;52.272;5.134;2022-07-10T01:16:21;102574.59;;;21.49;79.95
17438;BME280;8836;52.272;5.134;2022-07-10T01:18:50;102573.84;;;21.51;79.39
17438;BME280;8836;52.272;5.134;2022-07-10T01:21:25;102576.00;;;21.72;79.17
17438;BME280;8836;52.272;5.134;2022-07-10T01:23:52;102573.03;;;21.82;78.12
17438;BME280;8836;52.272;5.134;2022-07-10T01:26:20;102565.41;;;21.75;78.44
17438;BME280;8836;52.272;5.134;2022-07-10T01:28:50;102553.69;;;21.89;78.11
17438;BME280;8836;52.272;5.134;2022-07-10T01:31:17;102563.56;;;22.03;77.14
17438;BME280;8836;52.272;5.134;2022-07-10T01:33:45;102561.69;;;22.02;76.45
17438;BME280;8836;52.272;5.134;2022-07-10T01:36:12;102569.19;;;21.93;76.89
17438;BME280;8836;52.272;5.134;2022-07-10T01:38:41;102565.00;;;21.98;76.46
17438;BME280;8836;52.272;5.134;2022-07-10T01:41:08;102559.81;;;22.01;76.16
17438;BME280;8836;52.272;5.134;2022-07-10T01:43:35;102561.69;;;22.02;76.88
17438;BME280;8836;52.272;5.134;2022-07-10T01:46:03;102555.09;;;22.12;76.70
17438;BME280;8836;52.272;5.134;2022-07-10T01:48:31;102557.22;;;22.17;76.89
17438;BME280;8836;52.272;5.134;2022-07-10T01:50:57;102554.88;;;22.24;77.09
17438;BME280;8836;52.272;5.134;2022-07-10T01:53:24;102554.88;;;22.24;77.28
17438;BME280;8836;52.272;5.134;2022-07-10T01:55:53;102552.09;;;22.22;77.67
17438;BME280;8836;52.272;5.134;2022-07-10T01:58:20;102554.06;;;22.25;77.87
17438;BME280;8836;52.272;5.134;2022-07-10T02:00:47;102555.06;;;22.27;77.98
17438;BME280;8836;52.272;5.134;2022-07-10T02:03:14;102546.25;;;22.29;77.91
17438;BME280;8836;52.272;5.134;2022-07-10T02:05:59;102540.84;;;22.29;77.92
17438;BME280;8836;52.272;5.134;2022-07-10T02:08:26;102534.19;;;22.23;78.17
17438;BME280;8836;52.272;5.134;2022-07-10T02:10:54;102534.38;;;22.26;78.08
17438;BME280;8836;52.272;5.134;2022-07-10T02:13:21;102526.41;;;22.12;78.46
17438;BME280;8836;52.272;5.134;2022-07-10T02:15:50;102523.25;;;22.19;78.28
17438;BME280;8836;52.272;5.134;2022-07-10T02:18:17;102523.59;;;22.26;78.20
17438;BME280;8836;52.272;5.134;2022-07-10T02:20:44;102527.31;;;22.28;77.98
17438;BME280;8836;52.272;5.134;2022-07-10T02:23:11;102525.53;;;22.28;77.79
17438;BME280;8836;52.272;5.134;2022-07-10T02:25:38;102523.78;;;22.29;77.72
17438;BME280;8836;52.272;5.134;2022-07-10T02:28:08;102527.03;;;22.23;77.50
17438;BME280;8836;52.272;5.134;2022-07-10T02:30:35;102529.63;;;22.22;77.55
17438;BME280;8836;52.272;5.134;2022-07-10T02:33:02;102530.66;;;22.24;77.53
17438;BME280;8836;52.272;5.134;2022-07-10T02:35:30;102536.50;;;22.31;77.11
17438;BME280;8836;52.272;5.134;2022-07-10T02:37:56;102536.31;;;22.28;76.79
17438;BME280;8836;52.272;5.134;2022-07-10T02:40:23;102532.78;;;22.29;76.87
17438;BME280;8836;52.272;5.134;2022-07-10T02:42:51;102521.91;;;22.28;76.73
17438;BME280;8836;52.272;5.134;2022-07-10T02:45:19;102511.72;;;22.22;77.14
17438;BME280;8836;52.272;5.134;2022-07-10T02:47:46;102510.78;;;22.22;77.25
17438;BME280;8836;52.272;5.134;2022-07-10T02:50:13;102509.13;;;22.24;77.23
17438;BME280;8836;52.272;5.134;2022-07-10T02:52:40;102519.34;;;22.14;77.77
17438;BME280;8836;52.272;5.134;2022-07-10T02:55:08;102519.97;;;22.25;77.59
17438;BME280;8836;52.272;5.134;2022-07-10T02:57:35;102519.06;;;22.25;77.53
17438;BME280;8836;52.272;5.134;2022-07-10T03:00:03;102518.97;;;22.23;77.60
17438;BME280;8836;52.272;5.134;2022-07-10T03:02:31;102516.34;;;22.25;77.82
17438;BME280;8836;52.272;5.134;2022-07-10T03:04:58;102520.72;;;22.23;77.87
17438;BME280;8836;52.272;5.134;2022-07-10T03:07:25;102521.09;;;22.29;77.70
17438;BME280;8836;52.272;5.134;2022-07-10T03:09:52;102528.81;;;22.23;77.65
17438;BME280;8836;52.272;5.134;2022-07-10T03:12:19;102526.78;;;22.18;77.79
17438;BME280;8836;52.272;5.134;2022-07-10T03:14:46;102525.38;;;22.25;77.71
17438;BME280;8836;52.272;5.134;2022-07-10T03:17:12;102508.75;;;22.17;77.65
17438;BME280;8836;52.272;5.134;2022-07-10T03:19:41;102516.19;;;22.22;77.83
17438;BME280;8836;52.272;5.134;2022-07-10T03:22:07;102520.91;;;22.26;77.46
17438;BME280;8836;52.272;5.134;2022-07-10T03:24:34;102521.75;;;22.25;77.00
17438;BME280;8836;52.272;5.134;2022-07-10T03:27:01;102521.56;;;22.22;76.70
17438;BME280;8836;52.272;5.134;2022-07-10T03:29:28;102509.94;;;22.23;76.40
17438;BME280;8836;52.272;5.134;2022-07-10T03:31:55;102513.41;;;22.20;76.21
17438;BME280;8836;52.272;5.134;2022-07-10T03:34:22;102510.63;;;22.18;75.92
17438;BME280;8836;52.272;5.134;2022-07-10T03:36:50;102520.63;;;22.21;75.84
17438;BME280;8836;52.272;5.134;2022-07-10T03:39:17;102522.50;;;22.22;75.85
17438;BME280;8836;52.272;5.134;2022-07-10T03:41:44;102524.91;;;22.17;75.37
17438;BME280;8836;52.272;5.134;2022-07-10T03:44:11;102521.66;;;22.23;75.85
17438;BME280;8836;52.272;5.134;2022-07-10T03:46:38;102522.03;;;22.14;76.00
17438;BME280;8836;52.272;5.134;2022-07-10T03:49:05;102517.84;;;22.19;76.31
17438;BME280;8836;52.272;5.134;2022-07-10T03:51:31;102518.03;;;22.23;76.25
17438;BME280;8836;52.272;5.134;2022-07-10T03:54:00;102515.25;;;22.21;76.49
17438;BME280;8836;52.272;5.134;2022-07-10T03:56:26;102515.06;;;22.18;76.28
17438;BME280;8836;52.272;5.134;2022-07-10T03:59:07;102501.69;;;22.19;76.34
17438;BME280;8836;52.272;5.134;2022-07-10T04:01:34;102509.13;;;22.24;76.44
17438;BME280;8836;52.272;5.134;2022-07-10T04:04:01;102515.34;;;22.23;76.52
17438;BME280;8836;52.272;5.134;2022-07-10T04:06:28;102510.97;;;22.25;76.41
17438;BME280;8836;52.272;5.134;2022-07-10T04:08:55;102508.94;;;22.21;76.34
17438;BME280;8836;52.272;5.134;2022-07-10T04:11:23;102503.38;;;22.17;76.61
17438;BME280;8836;52.272;5.134;2022-07-10T04:13:51;102506.91;;;22.16;77.12
17438;BME280;8836;52.272;5.134;2022-07-10T04:16:18;102507.91;;;22.18;77.06
17438;BME280;8836;52.272;5.134;2022-07-10T04:18:45;102512.56;;;22.21;77.03
17438;BME280;8836;52.272;5.134;2022-07-10T04:21:12;102507.16;;;22.21;77.20
17438;BME280;8836;52.272;5.134;2022-07-10T04:23:39;102499.84;;;22.18;77.14
17438;BME280;8836;52.272;5.134;2022-07-10T04:26:06;102500.03;;;22.22;77.21
17438;BME280;8836;52.272;5.134;2022-07-10T04:28:34;102514.41;;;22.22;77.26
17438;BME280;8836;52.272;5.134;2022-07-10T04:31:01;102503.38;;;22.17;77.59
17438;BME280;8836;52.272;5.134;2022-07-10T04:33:28;102503.72;;;22.24;77.52
17438;BME280;8836;52.272;5.134;2022-07-10T04:35:55;102503.56;;;22.21;77.80
17438;BME280;8836;52.272;5.134;2022-07-10T04:38:22;102503.72;;;22.24;77.98
17438;BME280;8836;52.272;5.134;2022-07-10T04:40:48;102502.06;;;22.26;77.92
17438;BME280;8836;52.272;5.134;2022-07-10T04:43:15;102490.53;;;22.28;78.03
17438;BME280;8836;52.272;5.134;2022-07-10T04:45:44;102495.00;;;22.28;78.42
17438;BME280;8836;52.272;5.134;2022-07-10T04:48:11;102492.03;;;22.23;78.70
17438;BME280;8836;52.272;5.134;2022-07-10T04:50:38;102500.19;;;22.25;79.26
17438;BME280;8836;52.272;5.134;2022-07-10T04:53:05;102496.50;;;22.23;79.16
17438;BME280;8836;52.272;5.134;2022-07-10T04:55:32;102504.66;;;22.24;79.58
17438;BME280;8836;52.272;5.134;2022-07-10T04:57:59;102497.50;;;22.25;79.91
17438;BME280;8836;52.272;5.134;2022-07-10T05:00:26;102498.09;;;22.19;80.42
17438;BME280;8836;52.272;5.134;2022-07-10T05:02:54;102499.19;;;22.23;80.43
17438;BME280;8836;52.272;5.134;2022-07-10T05:05:21;102500.19;;;22.25;80.49
17438;BME280;8836;52.272;5.134;2022-07-10T05:07:47;102505.75;;;22.28;80.44
17438;BME280;8836;52.272;5.134;2022-07-10T05:10:14;102500.91;;;22.37;80.31
17438;BME280;8836;52.272;5.134;2022-07-10T05:12:41;102501.75;;;22.36;80.43
17438;BME280;8836;52.272;5.134;2022-07-10T05:15:09;102507.03;;;22.34;80.53
17438;BME280;8836;52.272;5.134;2022-07-10T05:17:36;102515.22;;;22.36;80.36
17438;BME280;8836;52.272;5.134;2022-07-10T05:20:06;102506.13;;;22.34;80.38
17438;BME280;8836;52.272;5.134;2022-07-10T05:22:33;102513.09;;;22.30;80.58
17438;BME280;8836;52.272;5.134;2022-07-10T05:25:00;102508.53;;;22.29;80.61
17438;BME280;8836;52.272;5.134;2022-07-10T05:27:26;102507.25;;;22.23;81.39
17438;BME280;8836;52.272;5.134;2022-07-10T05:29:53;102508.94;;;22.21;81.75
17438;BME280;8836;52.272;5.134;2022-07-10T05:32:20;102518.03;;;22.23;81.71
17438;BME280;8836;52.272;5.134;2022-07-10T05:34:47;102510.44;;;22.15;82.18
17438;BME280;8836;52.272;5.134;2022-07-10T05:37:15;102518.03;;;22.23;81.59
17438;BME280;8836;52.272;5.134;2022-07-10T05:39:43;102514.16;;;22.17;81.89
17438;BME280;8836;52.272;5.134;2022-07-10T05:42:10;102508.09;;;22.22;81.73
17438;BME280;8836;52.272;5.134;2022-07-10T05:44:37;102515.34;;;22.23;81.48
17438;BME280;8836;52.272;5.134;2022-07-10T05:47:04;102512.16;;;22.30;80.99
17438;BME280;8836;52.272;5.134;2022-07-10T05:49:32;102509.28;;;22.27;80.96
17438;BME280;8836;52.272;5.134;2022-07-10T05:51:59;102512.81;;;22.26;81.27
17438;BME280;8836;52.272;5.134;2022-07-10T05:54:27;102509.28;;;22.27;81.43
17438;BME280;8836;52.272;5.134;2022-07-10T05:56:54;102512.00;;;22.27;81.41
17438;BME280;8836;52.272;5.134;2022-07-10T05:59:21;102509.38;;;22.28;81.59
17438;BME280;8836;52.272;5.134;2022-07-10T06:01:48;102516.53;;;22.28;81.57
17438;BME280;8836;52.272;5.134;2022-07-10T06:04:15;102513.34;;;22.35;81.36
17438;BME280;8836;52.272;5.134;2022-07-10T06:06:42;102510.41;;;22.30;81.85
17438;BME280;8836;52.272;5.134;2022-07-10T06:09:09;102509.81;;;22.36;81.54
17438;BME280;8836;52.272;5.134;2022-07-10T06:11:37;102512.59;;;22.37;81.88
17438;BME280;8836;52.272;5.134;2022-07-10T06:14:06;102506.38;;;22.38;81.67
17438;BME280;8836;52.272;5.134;2022-07-10T06:16:33;102503.09;;;22.44;81.53
17438;BME280;8836;52.272;5.134;2022-07-10T06:18:59;102511.50;;;22.34;81.74
17438;BME280;8836;52.272;5.134;2022-07-10T06:21:26;102515.13;;;22.34;81.86
17438;BME280;8836;52.272;5.134;2022-07-10T06:23:53;102518.75;;;22.35;82.27
17438;BME280;8836;52.272;5.134;2022-07-10T06:26:20;102512.78;;;22.40;81.73
17438;BME280;8836;52.272;5.134;2022-07-10T06:28:48;102520.03;;;22.41;81.88
17438;BME280;8836;52.272;5.134;2022-07-10T06:31:15;102522.06;;;22.45;81.66
17438;BME280;8836;52.272;5.134;2022-07-10T06:33:42;102518.25;;;22.42;82.00
17438;BME280;8836;52.272;5.134;2022-07-10T06:36:09;102520.78;;;22.39;82.19
17438;BME280;8836;52.272;5.134;2022-07-10T06:38:38;102525.97;;;22.36;82.37
17438;BME280;8836;52.272;5.134;2022-07-10T06:41:05;102519.50;;;22.32;82.59
17438;BME280;8836;52.272;5.134;2022-07-10T06:43:32;102516.88;;;22.34;82.49
17438;BME280;8836;52.272;5.134;2022-07-10T06:46:00;102524.13;;;22.35;82.38
17438;BME280;8836;52.272;5.134;2022-07-10T06:48:27;102518.75;;;22.35;82.19
17438;BME280;8836;52.272;5.134;2022-07-10T06:50:53;102524.31;;;22.38;81.80
17438;BME280;8836;52.272;5.134;2022-07-10T06:53:21;102521.53;;;22.36;82.12
17438;BME280;8836;52.272;5.134;2022-07-10T06:55:52;102527.84;;;22.37;81.65
17438;BME280;8836;52.272;5.134;2022-07-10T06:58:20;102528.06;;;22.25;82.57
17438;BME280;8836;52.272;5.134;2022-07-10T07:00:46;102514.16;;;22.17;83.04
17438;BME280;8836;52.272;5.134;2022-07-10T07:03:15;102512.81;;;22.26;82.67
17438;BME280;8836;52.272;5.134;2022-07-10T07:05:41;102515.69;;;22.29;82.88
17438;BME280;8836;52.272;5.134;2022-07-10T07:08:08;102520.06;;;22.27;82.78
17438;BME280;8836;52.272;5.134;2022-07-10T07:10:35;102518.56;;;22.32;82.85
17438;BME280;8836;52.272;5.134;2022-07-10T07:13:02;102514.69;;;22.27;82.65
17438;BME280;8836;52.272;5.134;2022-07-10T07:15:29;102530.63;;;22.38;83.02
17438;BME280;8836;52.272;5.134;2022-07-10T07:17:56;102520.94;;;22.42;82.60
17438;BME280;8836;52.272;5.134;2022-07-10T07:20:34;102518.50;;;22.46;82.35
17438;BME280;8836;52.272;5.134;2022-07-10T07:23:22;102522.84;;;22.59;81.09
17438;BME280;8836;52.272;5.134;2022-07-10T07:25:49;102517.34;;;22.58;81.51
17438;BME280;8836;52.272;5.134;2022-07-10T07:28:17;102525.88;;;22.65;81.28
17438;BME280;8836;52.272;5.134;2022-07-10T07:30:46;102523.34;;;22.68;80.97
17438;BME280;8836;52.272;5.134;2022-07-10T07:33:14;102522.34;;;22.66;80.75
17438;BME280;8836;52.272;5.134;2022-07-10T07:35:42;102500.75;;;22.50;81.31
17438;BME280;8836;52.272;5.134;2022-07-10T07:38:09;102526.03;;;22.68;81.60
17438;BME280;8836;52.272;5.134;2022-07-10T07:40:36;102525.47;;;22.74;80.69
17438;BME280;8836;52.272;5.134;2022-07-10T07:43:04;102527.06;;;22.70;80.71
17438;BME280;8836;52.272;5.134;2022-07-10T07:45:31;102529.09;;;22.74;80.67
17438;BME280;8836;52.272;5.134;2022-07-10T07:47:59;102523.09;;;22.64;81.15
17438;BME280;8836;52.272;5.134;2022-07-10T07:50:30;102527.22;;;22.73;81.25
17438;BME280;8836;52.272;5.134;2022-07-10T07:52:59;102520.56;;;22.67;81.33
17438;BME280;8836;52.272;5.134;2022-07-10T07:55:27;102534.03;;;22.67;81.66
17438;BME280;8836;52.272;5.134;2022-07-10T07:57:56;102517.19;;;22.55;82.29
17438;BME280;8836;52.272;5.134;2022-07-10T08:00:24;102537.66;;;22.67;82.03
17438;BME280;8836;52.272;5.134;2022-07-10T08:02:53;102532.03;;;22.63;81.93
17438;BME280;8836;52.272;5.134;2022-07-10T08:05:21;102532.41;;;22.54;82.89
17438;BME280;8836;52.272;5.134;2022-07-10T08:07:52;102527.13;;;22.56;83.11
17438;BME280;8836;52.272;5.134;2022-07-10T08:10:23;102531.44;;;22.68;83.00
17438;BME280;8836;52.272;5.134;2022-07-10T08:12:51;102536.50;;;22.78;82.12
17438;BME280;8836;52.272;5.134;2022-07-10T08:15:20;102528.72;;;22.83;81.50
17438;BME280;8836;52.272;5.134;2022-07-10T08:17:49;102527.69;;;22.81;81.75
17438;BME280;8836;52.272;5.134;2022-07-10T08:20:17;102520.53;;;22.81;81.84
17438;BME280;8836;52.272;5.134;2022-07-10T08:22:44;102525.00;;;22.81;81.54
17438;BME280;8836;52.272;5.134;2022-07-10T08:25:12;102517.19;;;22.86;81.28
17438;BME280;8836;52.272;5.134;2022-07-10T08:27:41;102530.13;;;22.93;81.30
17438;BME280;8836;52.272;5.134;2022-07-10T08:30:10;102530.31;;;22.79;81.98
17438;BME280;8836;52.272;5.134;2022-07-10T08:32:39;102523.59;;;22.57;81.51
17438;BME280;8836;52.272;5.134;2022-07-10T08:35:08;102526.47;;;22.60;81.77
17438;BME280;8836;52.272;5.134;2022-07-10T08:37:38;102514.84;;;22.61;81.59
17438;BME280;8836;52.272;5.134;2022-07-10T08:40:08;102514.09;;;22.63;81.40
17438;BME280;8836;52.272;5.134;2022-07-10T08:42:36;102494.53;;;22.51;81.39
17438;BME280;8836;52.272;5.134;2022-07-10T08:45:06;102520.31;;;22.62;81.83
17438;BME280;8836;52.272;5.134;2022-07-10T08:47:34;102526.81;;;22.66;81.21
17438;BME280;8836;52.272;5.134;2022-07-10T08:50:03;102524.47;;;22.72;81.07
17438;BME280;8836;52.272;5.134;2022-07-10T08:52:38;102522.09;;;22.78;81.17
17438;BME280;8836;52.272;5.134;2022-07-10T08:55:13;102528.81;;;22.70;80.74
17438;BME280;8836;52.272;5.134;2022-07-10T08:57:42;102523.44;;;22.70;81.25
17438;BME280;8836;52.272;5.134;2022-07-10T09:00:11;102517.53;;;22.61;81.48
17438;BME280;8836;52.272;5.134;2022-07-10T09:02:38;102509.38;;;22.59;81.42
17438;BME280;8836;52.272;5.134;2022-07-10T09:05:06;102513.34;;;22.66;81.19
17438;BME280;8836;52.272;5.134;2022-07-10T09:07:35;102515.28;;;22.68;81.01
17438;BME280;8836;52.272;5.134;2022-07-10T09:10:07;102514.22;;;22.50;81.09
17438;BME280;8836;52.272;5.134;2022-07-10T09:12:51;102514.06;;;22.47;80.66
17438;BME280;8836;52.272;5.134;2022-07-10T09:15:23;102520.13;;;22.59;80.72
17438;BME280;8836;52.272;5.134;2022-07-10T09:17:54;102512.41;;;22.65;80.60
17438;BME280;8836;52.272;5.134;2022-07-10T09:20:31;102508.03;;;22.67;80.89
17438;BME280;8836;52.272;5.134;2022-07-10T09:23:00;102507.94;;;22.66;80.79
17438;BME280;8836;52.272;5.134;2022-07-10T09:25:35;102487.97;;;22.62;80.75
17438;BME280;8836;52.272;5.134;2022-07-10T09:28:02;102512.00;;;22.74;81.14
17438;BME280;8836;52.272;5.134;2022-07-10T09:30:36;102508.69;;;22.63;80.92
17438;BME280;8836;52.272;5.134;2022-07-10T09:33:18;102507.25;;;22.54;82.19
17438;BME280;8836;52.272;5.134;2022-07-10T09:36:11;102499.44;;;22.58;81.90
17438;BME280;8836;52.272;5.134;2022-07-10T09:38:53;102493.88;;;22.71;81.25
17438;BME280;8836;52.272;5.134;2022-07-10T09:41:23;102490.81;;;22.80;80.63
17438;BME280;8836;52.272;5.134;2022-07-10T09:43:52;102488.38;;;22.85;80.58
17438;BME280;8836;52.272;5.134;2022-07-10T09:46:23;102489.03;;;22.80;80.98
17438;BME280;8836;52.272;5.134;2022-07-10T09:49:08;102481.97;;;22.82;82.92
17438;BME280;8836;52.272;5.134;2022-07-10T09:51:38;102484.75;;;22.84;81.26
17438;BME280;8836;52.272;5.134;2022-07-10T09:54:08;102487.81;;;22.75;80.85
17438;BME280;8836;52.272;5.134;2022-07-10T09:56:43;102482.13;;;22.86;80.15
17438;BME280;8836;52.272;5.134;2022-07-10T09:59:13;102479.53;;;22.87;80.73
17438;BME280;8836;52.272;5.134;2022-07-10T10:01:46;102475.19;;;22.91;80.85
17438;BME280;8836;52.272;5.134;2022-07-10T10:04:15;102479.06;;;22.96;80.99
17438;BME280;8836;52.272;5.134;2022-07-10T10:06:45;102480.59;;;22.91;81.59
17438;BME280;8836;52.272;5.134;2022-07-10T10:09:21;102481.03;;;22.82;81.65
17438;BME280;8836;52.272;5.134;2022-07-10T10:11:53;102484.38;;;22.78;82.01
17438;BME280;8836;52.272;5.134;2022-07-10T10:14:23;102472.50;;;22.74;82.06
17438;BME280;8836;52.272;5.134;2022-07-10T10:16:55;102488.19;;;22.81;81.65
17438;BME280;8836;52.272;5.134;2022-07-10T10:19:23;102491.91;;;22.83;81.61
17438;BME280;8836;52.272;5.134;2022-07-10T10:22:09;102489.03;;;22.80;81.88
17438;BME280;8836;52.272;5.134;2022-07-10T10:24:39;102490.22;;;22.86;81.38
17438;BME280;8836;52.272;5.134;2022-07-10T10:27:08;102494.06;;;22.91;81.49
17438;BME280;8836;52.272;5.134;2022-07-10T10:29:37;102485.31;;;22.78;81.71
17438;BME280;8836;52.272;5.134;2022-07-10T10:32:08;102481.13;;;22.83;81.54
17438;BME280;8836;52.272;5.134;2022-07-10T10:34:40;102492.22;;;22.90;81.40
17438;BME280;8836;52.272;5.134;2022-07-10T10:37:34;102486.59;;;22.85;81.52
17438;BME280;8836;52.272;5.134;2022-07-10T10:40:03;102488.53;;;22.88;81.62
17438;BME280;8836;52.272;5.134;2022-07-10T10:42:36;102493.94;;;22.88;81.72
17438;BME280;8836;52.272;5.134;2022-07-10T10:45:25;102484.28;;;22.93;80.98
17438;BME280;8836;52.272;5.134;2022-07-10T10:48:01;102490.00;;;22.99;81.16
17438;BME280;8836;52.272;5.134;2022-07-10T10:50:38;102486.31;;;22.97;81.00
17438;BME280;8836;52.272;5.134;2022-07-10T10:53:13;102488.34;;;23.01;80.66
17438;BME280;8836;52.272;5.134;2022-07-10T10:55:40;102493.13;;;23.06;79.85
17438;BME280;8836;52.272;5.134;2022-07-10T10:58:16;102492.19;;;23.06;80.01
17438;BME280;8836;52.272;5.134;2022-07-10T11:00:44;102480.50;;;23.05;79.72
17438;BME280;8836;52.272;5.134;2022-07-10T11:03:19;102495.06;;;23.09;79.28
17438;BME280;8836;52.272;5.134;2022-07-10T11:05:48;102475.50;;;23.13;78.29
17438;BME280;8836;52.272;5.134;2022-07-10T11:08:41;102479.13;;;23.13;78.58
17438;BME280;8836;52.272;5.134;2022-07-10T11:11:37;102478.69;;;23.22;77.87
17438;BME280;8836;52.272;5.134;2022-07-10T11:14:08;102479.91;;;23.11;77.78
17438;BME280;8836;52.272;5.134;2022-07-10T11:16:35;102480.38;;;23.20;76.84
17438;BME280;8836;52.272;5.134;2022-07-10T11:19:03;102478.88;;;23.25;75.79
17438;BME280;8836;52.272;5.134;2022-07-10T11:21:46;102474.72;;;23.32;75.91
17438;BME280;8836;52.272;5.134;2022-07-10T11:24:39;102477.25;;;23.29;75.08
17438;BME280;8836;52.272;5.134;2022-07-10T11:27:26;102469.94;;;23.26;73.79
17438;BME280;8836;52.272;5.134;2022-07-10T11:29:59;102455.34;;;23.23;74.18
17438;BME280;8836;52.272;5.134;2022-07-10T11:32:27;102485.44;;;23.30;74.17
17438;BME280;8836;52.272;5.134;2022-07-10T11:34:56;102479.19;;;23.31;74.08
17438;BME280;8836;52.272;5.134;2022-07-10T11:37:22;102485.59;;;23.33;73.65
17438;BME280;8836;52.272;5.134;2022-07-10T11:40:08;102470.41;;;23.35;73.75
17438;BME280;8836;52.272;5.134;2022-07-10T11:42:51;102470.75;;;23.41;74.10
17438;BME280;8836;52.272;5.134;2022-07-10T11:45:37;102471.41;;;23.37;73.82
17438;BME280;8836;52.272;5.134;2022-07-10T11:48:05;102460.78;;;23.40;73.93
17438;BME280;8836;52.272;5.134;2022-07-10T11:50:38;102466.34;;;23.43;73.83
17438;BME280;8836;52.272;5.134;2022-07-10T11:53:05;102464.72;;;23.47;73.04
17438;BME280;8836;52.272;5.134;2022-07-10T11:55:32;102457.09;;;23.38;72.18
17438;BME280;8836;52.272;5.134;2022-07-10T11:58:14;102456.25;;;23.39;71.94
17438;BME280;8836;52.272;5.134;2022-07-10T12:00:41;102458.88;;;23.38;71.42
17438;BME280;8836;52.272;5.134;2022-07-10T12:03:19;102441.91;;;23.40;71.20
17438;BME280;8836;52.272;5.134;2022-07-10T12:05:48;102445.63;;;23.42;70.96
17438;BME280;8836;52.272;5.134;2022-07-10T12:08:16;102449.31;;;23.44;71.29
17438;BME280;8836;52.272;5.134;2022-07-10T12:10:44;102435.50;;;23.38;70.98
17438;BME280;8836;52.272;5.134;2022-07-10T12:13:13;102442.91;;;23.42;70.45
17438;BME280;8836;52.272;5.134;2022-07-10T12:15:43;102441.91;;;23.40;70.43
17438;BME280;8836;52.272;5.134;2022-07-10T12:18:17;102447.91;;;23.35;70.15
17438;BME280;8836;52.272;5.134;2022-07-10T12:20:48;102454.38;;;23.38;71.01
17438;BME280;8836;52.272;5.134;2022-07-10T12:23:16;102456.31;;;23.41;70.72
17438;BME280;8836;52.272;5.134;2022-07-10T12:25:47;102446.53;;;23.43;70.07
17438;BME280;8836;52.272;5.134;2022-07-10T12:28:15;102440.38;;;23.45;69.49
17438;BME280;8836;52.272;5.134;2022-07-10T12:30:45;102450.47;;;23.49;69.88
17438;BME280;8836;52.272;5.134;2022-07-10T12:33:14;102452.34;;;23.51;69.55
17438;BME280;8836;52.272;5.134;2022-07-10T12:35:53;102447.94;;;23.53;70.23
17438;BME280;8836;52.272;5.134;2022-07-10T12:38:23;102446.44;;;23.58;69.55
17438;BME280;8836;52.272;5.134;2022-07-10T12:40:51;102444.91;;;23.63;69.67
17438;BME280;8836;52.272;5.134;2022-07-10T12:43:32;102441.19;;;23.61;69.41
17438;BME280;8836;52.272;5.134;2022-07-10T12:46:18;102449.44;;;23.64;69.66
17438;BME280;8836;52.272;5.134;2022-07-10T12:49:04;102440.66;;;23.68;69.92
17438;BME280;8836;52.272;5.134;2022-07-10T12:51:36;102448.84;;;23.69;69.88
17438;BME280;8836;52.272;5.134;2022-07-10T12:54:08;102448.91;;;23.71;69.15
17438;BME280;8836;52.272;5.134;2022-07-10T12:56:37;102439.19;;;23.74;69.26
17438;BME280;8836;52.272;5.134;2022-07-10T12:59:12;102448.31;;;23.76;69.75
17438;BME280;8836;52.272;5.134;2022-07-10T13:01:42;102433.25;;;23.82;69.74
17438;BME280;8836;52.272;5.134;2022-07-10T13:04:10;102442.75;;;23.91;69.52
17438;BME280;8836;52.272;5.134;2022-07-10T13:06:39;102444.16;;;23.83;68.58
17438;BME280;8836;52.272;5.134;2022-07-10T13:09:20;102440.06;;;23.91;69.01
17438;BME280;8836;52.272;5.134;2022-07-10T13:11:48;102426.25;;;23.85;69.24